Time;durP1;ratioP1;P1;durP2;ratioP2;P2;SDS_P1;SDS_P2;PMS_P1;PMS_P2;Temp;Humidity;BMP_temperature;BMP_pressure;BME280_temperature;BME280_humidity;BME280_pressure;Samples;Min_cycle;Max_cycle;Signal;HPM_P1;HPM_P2
2022/09/20 00:00:12;;;;;;;2.78;1.30;;;;;;;23.78;51.03;98551.72;2076799;28;20049;-49
2022/09/20 00:01:17;;;;;;;1.80;0.82;;;;;;;23.77;51.04;98550.09;2076917;28;20045;-52
2022/09/20 00:02:17;;;;;;;2.17;1.42;;;;;;;23.76;50.98;98545.72;2075341;28;20127;-53
2022/09/20 00:03:19;;;;;;;2.63;1.40;;;;;;;23.77;51.18;98554.69;2076709;28;20052;-52
2022/09/20 00:04:21;;;;;;;2.42;1.77;;;;;;;23.76;51.01;98561.97;2080077;28;20048;-52
2022/09/20 00:05:22;;;;;;;2.97;1.15;;;;;;;23.77;50.94;98552.78;2077431;28;20130;-51
2022/09/20 00:06:26;;;;;;;1.92;1.50;;;;;;;23.77;51.22;98552.78;2079650;28;20095;-50
2022/09/20 00:07:26;;;;;;;1.83;0.90;;;;;;;23.75;51.03;98545.97;2077092;28;20072;-54
2022/09/20 00:08:29;;;;;;;2.15;1.15;;;;;;;23.75;51.20;98549.50;2076594;28;20690;-54
2022/09/20 00:09:30;;;;;;;3.05;1.40;;;;;;;23.75;51.04;98545.97;2075759;28;20048;-51
2022/09/20 00:10:35;;;;;;;2.50;1.40;;;;;;;23.75;51.10;98548.69;2082140;28;20052;-56
2022/09/20 00:11:38;;;;;;;4.65;1.83;;;;;;;23.74;51.12;98553.28;2078193;28;21801;-49
2022/09/20 00:12:40;;;;;;;3.08;1.33;;;;;;;23.74;51.30;98553.28;2085770;28;20052;-55
2022/09/20 00:13:44;;;;;;;2.75;1.17;;;;;;;23.75;51.29;98554.09;2084450;28;20498;-52
2022/09/20 00:14:45;;;;;;;1.80;1.25;;;;;;;23.74;51.34;98553.28;2088644;28;20533;-49
2022/09/20 00:15:47;;;;;;;2.30;1.30;;;;;;;23.74;51.09;98553.28;2082749;28;20059;-51
2022/09/20 00:16:49;;;;;;;2.03;1.08;;;;;;;23.74;51.15;98549.75;2085925;28;20087;-48
2022/09/20 00:17:49;;;;;;;2.47;1.20;;;;;;;23.73;51.11;98557.03;2085381;28;20109;-48
2022/09/20 00:18:53;;;;;;;3.90;2.13;;;;;;;23.74;50.99;98549.75;2084882;28;20133;-48
2022/09/20 00:19:54;;;;;;;4.20;1.30;;;;;;;23.73;51.12;98553.50;2086810;28;20533;-55
2022/09/20 00:20:56;;;;;;;2.50;1.13;;;;;;;23.73;51.01;98557.03;2086419;28;20130;-53
2022/09/20 00:21:56;;;;;;;3.28;1.48;;;;;;;23.75;51.25;98564.94;2085689;28;20044;-54
2022/09/20 00:22:58;;;;;;;2.00;1.10;;;;;;;23.73;51.27;98557.03;2087642;28;20114;-52
2022/09/20 00:24:00;;;;;;;1.35;1.00;;;;;;;23.74;51.19;98555.97;2084828;28;20110;-52
2022/09/20 00:25:02;;;;;;;2.88;1.35;;;;;;;23.73;51.03;98550.78;2086569;28;20058;-52
2022/09/20 00:26:03;;;;;;;1.30;1.17;;;;;;;23.71;51.19;98559.19;2086844;28;20676;-51
2022/09/20 00:27:05;;;;;;;3.00;1.63;;;;;;;23.73;50.93;98554.31;2085836;28;20056;-48
2022/09/20 00:28:09;;;;;;;1.67;1.10;;;;;;;23.74;51.19;98558.69;2084342;28;20055;-51
2022/09/20 00:29:11;;;;;;;2.38;1.10;;;;;;;23.73;50.89;98557.03;2084552;28;20048;-49
2022/09/20 00:30:12;;;;;;;1.73;1.23;;;;;;;23.72;51.06;98547.28;2091301;28;20059;-53
2022/09/20 00:31:15;;;;;;;2.53;1.60;;;;;;;23.73;51.33;98557.03;2085234;27;20055;-48
2022/09/20 00:32:16;;;;;;;2.67;1.20;;;;;;;23.71;51.12;98550.19;2083930;28;20105;-51
2022/09/20 00:33:18;;;;;;;2.25;1.23;;;;;;;23.72;51.22;98551.88;2086729;28;20144;-53
2022/09/20 00:35:42;;;;;;;1.80;1.25;;;;;;;23.68;51.32;98548.78;2084928;28;20048;-55
2022/09/20 00:36:43;;;;;;;4.78;1.67;;;;;;;23.69;51.38;98547.72;2088683;28;20044;-52
2022/09/20 00:37:45;;;;;;;2.08;1.55;;;;;;;23.72;51.20;98549.16;2086357;28;20585;-52
2022/09/20 00:38:46;;;;;;;3.17;1.20;;;;;;;23.72;51.11;98551.88;2085762;28;20045;-53
2022/09/20 00:39:48;;;;;;;2.33;1.25;;;;;;;23.72;51.35;98554.56;2087220;28;20052;-48
2022/09/20 00:40:49;;;;;;;4.00;1.60;;;;;;;23.71;51.42;98548.34;2087302;28;20081;-51
2022/09/20 00:41:50;;;;;;;2.13;1.13;;;;;;;23.71;51.11;98550.19;2085709;28;20109;-47
2022/09/20 00:42:52;;;;;;;2.10;1.25;;;;;;;23.71;51.41;98553.75;2085325;28;20601;-53
2022/09/20 00:43:54;;;;;;;1.13;1.02;;;;;;;23.72;51.24;98551.88;2081321;28;20714;-53
2022/09/20 00:44:58;;;;;;;2.63;1.17;;;;;;;23.71;51.14;98547.50;2086932;27;20079;-50
2022/09/20 00:46:01;;;;;;;1.83;1.27;;;;;;;23.71;51.23;98552.91;2088723;28;20052;-52
2022/09/20 00:47:04;;;;;;;2.85;1.30;;;;;;;23.71;51.25;98552.91;2082611;27;20048;-51
2022/09/20 00:48:13;;;;;;;2.70;1.60;;;;;;;23.71;51.27;98548.34;2082412;28;20456;-54
2022/09/20 00:49:19;;;;;;;1.20;1.00;;;;;;;23.69;51.54;98547.72;2086248;28;20790;-50
2022/09/20 00:50:31;;;;;;;3.33;0.95;;;;;;;23.67;51.38;98547.13;2087417;28;20059;-54
2022/09/20 00:51:35;;;;;;;2.17;1.13;;;;;;;23.66;51.52;98545.50;2085314;28;20045;-55
2022/09/20 00:52:37;;;;;;;2.20;0.90;;;;;;;23.68;51.23;98556.06;2093077;28;20052;-52
2022/09/20 00:53:43;;;;;;;2.58;1.17;;;;;;;23.68;51.39;98548.78;2094004;28;20093;-49
2022/09/20 00:54:45;;;;;;;1.52;1.10;;;;;;;23.69;51.43;98544.19;2088820;28;20093;-53
2022/09/20 00:55:50;;;;;;;4.20;1.17;;;;;;;23.68;51.22;98548.78;2092709;28;20101;-50
2022/09/20 00:56:51;;;;;;;3.22;1.30;;;;;;;23.67;51.28;98541.72;2092049;28;20060;-50
2022/09/20 00:57:54;;;;;;;2.42;1.05;;;;;;;23.68;51.32;98543.38;2087382;28;20460;-48
2022/09/20 00:59:02;;;;;;;1.92;1.02;;;;;;;23.68;51.44;98545.22;2081313;28;20588;-53
2022/09/20 01:00:06;;;;;;;1.50;1.10;;;;;;;23.68;51.61;98539.81;2086461;28;20146;-53
2022/09/20 01:01:08;;;;;;;2.38;1.20;;;;;;;23.68;51.32;98535.25;2087467;28;20194;-54
2022/09/20 01:02:16;;;;;;;4.30;1.63;;;;;;;23.68;51.41;98534.41;2087338;28;20048;-55
2022/09/20 01:03:21;;;;;;;4.45;1.30;;;;;;;23.68;51.49;98537.13;2082860;28;20793;-53
2022/09/20 01:04:27;;;;;;;2.20;1.52;;;;;;;23.68;51.39;98532.53;2084764;28;20115;-51
2022/09/20 01:05:28;;;;;;;1.15;0.80;;;;;;;23.67;51.43;98533.59;2087125;28;20055;-49
2022/09/20 01:06:32;;;;;;;3.03;1.17;;;;;;;23.69;51.22;98533.38;2086867;28;20055;-51
2022/09/20 01:07:33;;;;;;;2.13;1.40;;;;;;;23.68;51.49;98534.41;2086626;28;20474;-50
2022/09/20 01:08:36;;;;;;;2.30;1.20;;;;;;;23.68;51.39;98529.00;2085570;28;20058;-50
2022/09/20 01:09:37;;;;;;;2.28;0.82;;;;;;;23.67;51.41;98530.88;2084166;28;20547;-52
2022/09/20 01:10:39;;;;;;;3.05;1.40;;;;;;;23.67;51.52;98533.59;2087044;28;20048;-54
2022/09/20 01:11:40;;;;;;;1.95;0.90;;;;;;;23.67;51.39;98533.59;2085068;28;21145;-47
2022/09/20 01:12:44;;;;;;;2.45;0.93;;;;;;;23.67;51.31;98530.06;2085401;28;20762;-46
2022/09/20 01:13:45;;;;;;;1.13;0.93;;;;;;;23.68;51.28;98526.28;2085152;28;20628;-46
2022/09/20 01:14:51;;;;;;;3.13;1.52;;;;;;;23.66;51.47;98525.72;2088705;28;20052;-49
2022/09/20 01:15:53;;;;;;;1.88;1.35;;;;;;;23.64;51.31;98524.06;2087484;28;20526;-46
2022/09/20 01:16:57;;;;;;;2.22;1.30;;;;;;;23.66;51.48;98529.25;2090423;28;20686;-55
2022/09/20 01:18:01;;;;;;;1.88;1.13;;;;;;;23.67;51.26;98530.88;2085792;28;20062;-44
2022/09/20 01:19:11;;;;;;;1.65;1.10;;;;;;;23.66;51.45;98529.25;2073834;28;20538;-44
2022/09/20 01:20:18;;;;;;;4.13;1.52;;;;;;;23.65;51.64;98530.28;2085353;28;20907;-46
2022/09/20 01:21:20;;;;;;;2.88;1.42;;;;;;;23.64;51.48;98532.19;2086785;28;20147;-45
2022/09/20 01:22:26;;;;;;;1.65;1.30;;;;;;;23.65;51.62;98527.56;2087373;28;20048;-50
2022/09/20 01:23:40;;;;;;;1.73;1.10;;;;;;;23.64;51.56;98532.19;2085793;28;20071;-47
2022/09/20 01:24:49;;;;;;;0.93;0.73;;;;;;;23.63;51.31;98527.03;2074898;28;20056;-46
2022/09/20 01:26:29;;;;;;;2.80;1.30;;;;;;;23.61;51.49;98531.84;2085637;28;20078;-47
2022/09/20 01:27:41;;;;;;;1.58;1.30;;;;;;;23.58;51.47;98533.13;2085316;28;20056;-47
2022/09/20 01:28:46;;;;;;;1.75;0.98;;;;;;;23.61;51.58;98535.38;2078137;28;20068;-49
2022/09/20 01:30:02;;;;;;;2.33;1.40;;;;;;;23.60;51.50;98531.03;2087438;28;20059;-47
2022/09/20 01:31:07;;;;;;;2.03;1.58;;;;;;;23.60;51.57;98525.59;2088426;28;20052;-50
2022/09/20 01:32:14;;;;;;;3.00;1.52;;;;;;;23.63;51.56;98529.72;2086575;28;20048;-46
2022/09/20 01:33:26;;;;;;;1.58;0.80;;;;;;;23.61;51.59;98526.44;2089816;28;20831;-45
2022/09/20 01:34:33;;;;;;;3.05;0.95;;;;;;;23.62;51.48;98519.94;2086695;28;20052;-48
2022/09/20 01:35:35;;;;;;;1.90;1.25;;;;;;;23.62;51.59;98525.34;2090615;28;20051;-46
2022/09/20 01:36:43;;;;;;;2.42;1.10;;;;;;;23.63;51.41;98519.72;2090871;28;20043;-45
2022/09/20 01:38:01;;;;;;;1.45;0.95;;;;;;;23.60;51.52;98519.38;2090006;28;20220;-46
2022/09/20 01:39:11;;;;;;;2.35;1.27;;;;;;;23.58;51.62;98519.59;2091538;28;20047;-47
2022/09/20 01:40:25;;;;;;;1.60;1.05;;;;;;;23.58;51.43;98526.91;2089239;28;20620;-46
2022/09/20 01:41:32;;;;;;;1.20;1.02;;;;;;;23.59;51.65;98523.94;2085697;28;20075;-44
2022/09/20 01:42:38;;;;;;;1.83;1.25;;;;;;;23.60;51.63;98520.19;2088795;28;20414;-44
2022/09/20 01:43:50;;;;;;;1.73;1.05;;;;;;;23.59;51.44;98526.66;2078331;28;24353;-47
2022/09/20 01:45:03;;;;;;;3.63;1.58;;;;;;;23.61;51.48;98526.44;2086376;28;20060;-45
2022/09/20 01:46:17;;;;;;;1.48;1.20;;;;;;;23.59;51.55;98526.66;2083887;28;20044;-44
2022/09/20 01:47:28;;;;;;;1.60;0.90;;;;;;;23.61;51.74;98526.44;2092064;28;20048;-47
2022/09/20 01:48:36;;;;;;;1.83;1.27;;;;;;;23.60;51.50;98532.91;2087800;28;20055;-47
2022/09/20 01:49:45;;;;;;;0.90;0.80;;;;;;;23.60;51.60;98528.31;2083515;28;20052;-47
2022/09/20 01:51:11;;;;;;;3.13;1.40;;;;;;;23.58;51.62;98532.31;2086961;28;20044;-46
2022/09/20 01:52:54;;;;;;;2.22;1.35;;;;;;;23.56;51.83;98537.97;2086885;28;20044;-47
2022/09/20 01:54:32;;;;;;;2.25;0.75;;;;;;;23.53;51.80;98534.91;2080470;28;20044;-49
2022/09/20 01:56:09;;;;;;;2.08;0.98;;;;;;;23.52;51.56;98538.69;2079974;28;20745;-44
2022/09/20 01:58:05;;;;;;;1.63;0.90;;;;;;;23.49;51.96;98534.56;2082982;28;20113;-48
2022/09/20 01:59:17;;;;;;;1.33;0.68;;;;;;;23.49;51.86;98531.88;2055754;28;20174;-46
2022/09/20 02:00:21;;;;;;;3.05;1.45;;;;;;;23.53;51.83;98534.91;2056554;28;20041;-48
2022/09/20 02:01:53;;;;;;;0.80;0.80;;;;;;;23.53;51.79;98524.09;2076038;28;21179;-48
2022/09/20 02:03:30;;;;;;;1.25;0.70;;;;;;;23.51;51.84;98520.78;2080270;28;20044;-46
2022/09/20 02:04:55;;;;;;;3.00;1.65;;;;;;;23.49;51.80;98522.94;2080791;28;20135;-45
2022/09/20 02:06:27;;;;;;;1.02;0.85;;;;;;;23.50;51.84;98528.09;2083606;28;20040;-47
2022/09/20 02:07:37;;;;;;;;;;;;;;;23.41;51.92;98529.53;2085809;28;20048;-46
2022/09/20 02:09:07;;;;;;;2.97;0.93;;;;;;;23.46;52.03;98528.78;2070757;28;20011;-47
2022/09/20 02:10:35;;;;;;;2.92;1.05;;;;;;;23.48;51.93;98527.50;2076421;28;20060;-45
2022/09/20 02:11:51;;;;;;;1.25;1.10;;;;;;;23.51;51.84;98532.44;2082083;28;20910;-46
2022/09/20 02:12:55;;;;;;;1.77;0.90;;;;;;;23.53;51.91;98530.31;2072155;28;20048;-47
2022/09/20 02:14:27;;;;;;;2.50;1.38;;;;;;;23.51;51.91;98526.19;2079909;28;20752;-44
2022/09/20 02:16:01;;;;;;;1.92;1.30;;;;;;;23.49;51.89;98523.75;2084907;28;20048;-44
2022/09/20 02:17:13;;;;;;;1.75;1.05;;;;;;;23.50;51.89;98519.16;2084449;28;20113;-46
2022/09/20 02:18:28;;;;;;;2.55;1.13;;;;;;;23.53;51.99;98524.09;2085185;28;20052;-44
2022/09/20 02:19:45;;;;;;;1.52;0.80;;;;;;;23.53;51.98;98530.31;2080931;28;20056;-45
2022/09/20 02:20:55;;;;;;;2.55;0.93;;;;;;;23.53;51.91;98516.78;2084295;28;20044;-47
2022/09/20 02:22:10;;;;;;;2.50;1.10;;;;;;;23.53;51.92;98524.09;2082151;28;20059;-44
2022/09/20 02:23:21;;;;;;;1.85;1.35;;;;;;;23.54;51.65;98521.16;2083551;28;20048;-47
2022/09/20 02:24:29;;;;;;;3.00;0.93;;;;;;;23.53;51.70;98521.38;2084247;28;20044;-48
2022/09/20 02:25:59;;;;;;;2.15;1.10;;;;;;;23.53;51.62;98515.97;2084091;28;20567;-44
2022/09/20 02:27:12;;;;;;;1.55;1.20;;;;;;;23.52;51.68;98523.28;2077611;28;20051;-47
2022/09/20 02:28:26;;;;;;;2.33;1.08;;;;;;;23.51;51.65;98521.59;2083731;28;20073;-44
2022/09/20 02:29:35;;;;;;;1.42;1.00;;;;;;;23.53;51.97;98513.25;2082805;28;20051;-46
2022/09/20 02:30:48;;;;;;;1.10;0.80;;;;;;;23.53;51.78;98521.38;2082308;28;20578;-49
2022/09/20 02:32:07;;;;;;;1.55;0.88;;;;;;;23.52;51.62;98517.84;2084323;28;20064;-44
2022/09/20 02:33:34;;;;;;;1.30;0.80;;;;;;;23.49;51.78;98523.75;2084211;28;20048;-46
2022/09/20 02:34:51;;;;;;;1.40;0.80;;;;;;;23.49;51.76;98518.34;2084196;28;20076;-45
2022/09/20 02:36:10;;;;;;;2.55;1.23;;;;;;;23.50;51.71;98519.16;2082198;28;20054;-44
2022/09/20 02:37:37;;;;;;;1.55;0.95;;;;;;;23.51;52.02;98526.19;2074132;28;20049;-45
2022/09/20 02:38:49;;;;;;;2.20;1.27;;;;;;;23.49;51.73;98512.94;2083437;28;20060;-46
2022/09/20 02:40:04;;;;;;;0.93;0.73;;;;;;;23.51;51.79;98513.47;2084157;28;20055;-47
2022/09/20 02:41:41;;;;;;;1.40;1.02;;;;;;;23.48;51.78;98526.69;2082031;28;20056;-46
2022/09/20 02:42:46;;;;;;;1.58;0.90;;;;;;;23.48;51.90;98515.84;2081023;28;20155;-45
2022/09/20 02:43:56;;;;;;;1.50;0.90;;;;;;;23.52;51.82;98517.03;2077367;28;20055;-45
2022/09/20 02:45:08;;;;;;;3.33;1.15;;;;;;;23.53;51.68;98521.38;2085339;28;20164;-46
2022/09/20 02:46:19;;;;;;;1.77;0.88;;;;;;;23.52;51.78;98520.56;2086769;28;20133;-44
2022/09/20 02:47:33;;;;;;;1.35;1.02;;;;;;;23.51;51.65;98510.78;2085350;28;20174;-48
2022/09/20 02:48:41;;;;;;;0.85;0.68;;;;;;;23.51;51.88;98520.78;2084817;28;20065;-44
2022/09/20 02:49:57;;;;;;;1.60;1.02;;;;;;;23.49;51.68;98518.34;2075187;28;23289;-45
2022/09/20 02:51:05;;;;;;;1.25;1.02;;;;;;;23.52;51.75;98517.03;2085312;28;20052;-47
2022/09/20 02:52:16;;;;;;;1.30;0.90;;;;;;;23.52;51.87;98514.34;2088215;28;20077;-47
2022/09/20 02:53:31;;;;;;;1.52;0.80;;;;;;;23.49;51.68;98515.63;2090673;28;20053;-45
2022/09/20 02:54:42;;;;;;;1.35;0.98;;;;;;;23.50;51.91;98514.56;2088822;28;20047;-47
2022/09/20 02:56:03;;;;;;;2.08;0.90;;;;;;;23.46;51.94;98518.81;2084798;28;20056;-44
2022/09/20 02:57:15;;;;;;;1.70;1.30;;;;;;;23.47;52.06;98515.03;2087007;28;20066;-46
2022/09/20 02:58:29;;;;;;;1.83;1.33;;;;;;;23.50;51.86;98516.44;2083925;28;20056;-47
2022/09/20 02:59:40;;;;;;;1.98;0.90;;;;;;;23.49;51.85;98512.09;2081074;28;20059;-45
2022/09/20 03:00:52;;;;;;;1.95;0.88;;;;;;;23.50;51.77;98514.56;2083709;28;20048;-47
2022/09/20 03:02:04;;;;;;;2.65;1.58;;;;;;;23.49;51.78;98512.09;2084040;28;20076;-46
2022/09/20 03:03:10;;;;;;;2.15;1.02;;;;;;;23.49;51.77;98509.41;2088748;28;20048;-45
2022/09/20 03:04:26;;;;;;;1.52;1.20;;;;;;;23.48;51.68;98508.56;2087123;28;20045;-48
2022/09/20 03:05:35;;;;;;;4.03;1.40;;;;;;;23.48;51.95;98511.25;2087001;28;20093;-48
2022/09/20 03:06:47;;;;;;;2.00;1.13;;;;;;;23.48;51.69;98503.13;2086297;28;20785;-45
2022/09/20 03:08:10;;;;;;;3.20;1.00;;;;;;;23.47;51.79;98503.41;2083862;28;20044;-44
2022/09/20 03:09:26;;;;;;;1.52;0.70;;;;;;;23.47;51.81;98506.09;2075540;28;20048;-45
2022/09/20 03:10:35;;;;;;;1.50;0.77;;;;;;;23.47;51.88;98509.63;2077825;28;20510;-47
2022/09/20 03:11:47;;;;;;;2.10;1.20;;;;;;;23.47;51.81;98506.09;2077631;28;20390;-45
2022/09/20 03:13:09;;;;;;;3.17;1.20;;;;;;;23.45;52.03;98511.72;2084506;28;20051;-46
2022/09/20 03:14:21;;;;;;;1.42;1.02;;;;;;;23.46;51.95;98512.56;2085792;28;20600;-45
2022/09/20 03:15:29;;;;;;;1.23;0.90;;;;;;;23.48;51.75;98508.56;2085702;28;20052;-48
2022/09/20 03:16:55;;;;;;;1.52;1.10;;;;;;;23.47;51.98;98506.91;2085318;28;20048;-46
2022/09/20 03:18:07;;;;;;;1.60;1.02;;;;;;;23.47;52.02;98511.50;2087178;28;20156;-44
2022/09/20 03:19:20;;;;;;;2.63;1.15;;;;;;;23.46;51.87;98508.00;2076117;28;20612;-45
2022/09/20 03:20:31;;;;;;;1.95;0.95;;;;;;;23.47;51.91;98506.09;2083740;28;21140;-46
2022/09/20 03:21:47;;;;;;;1.80;0.73;;;;;;;23.46;51.92;98512.56;2085899;28;20134;-47
2022/09/20 03:22:56;;;;;;;2.22;1.15;;;;;;;23.48;51.77;98507.72;2079473;28;20052;-44
2022/09/20 03:24:09;;;;;;;2.35;1.00;;;;;;;23.48;51.88;98507.72;2083196;28;20052;-44
2022/09/20 03:25:33;;;;;;;1.85;0.88;;;;;;;23.45;51.80;98505.50;2081493;28;20849;-46
2022/09/20 03:26:47;;;;;;;1.58;0.90;;;;;;;23.45;52.04;98505.50;2086262;28;20059;-45
2022/09/20 03:27:58;;;;;;;2.47;1.00;;;;;;;23.45;51.90;98508.22;2085201;28;20077;-45
2022/09/20 03:29:06;;;;;;;1.63;1.00;;;;;;;23.44;51.91;98503.88;2074253;28;20687;-46
2022/09/20 03:30:26;;;;;;;3.40;1.33;;;;;;;23.45;52.10;98508.22;2078091;28;20053;-44
2022/09/20 03:31:43;;;;;;;1.70;0.95;;;;;;;23.45;51.88;98503.63;2078148;28;20137;-47
2022/09/20 03:32:58;;;;;;;0.93;0.73;;;;;;;23.43;51.98;98505.75;2079420;28;20057;-44
2022/09/20 03:34:09;;;;;;;2.55;1.10;;;;;;;23.43;52.02;98505.75;2084693;28;20102;-47
2022/09/20 03:35:24;;;;;;;2.03;0.85;;;;;;;23.43;52.00;98513.88;2084703;28;20056;-46
2022/09/20 03:36:53;;;;;;;1.98;1.17;;;;;;;23.45;51.95;98508.22;2086864;28;20049;-48
2022/09/20 03:38:09;;;;;;;1.55;0.82;;;;;;;23.43;51.97;98508.47;2085391;28;20234;-44
2022/09/20 03:39:26;;;;;;;2.03;1.05;;;;;;;23.42;51.95;98513.03;2083384;28;20059;-45
2022/09/20 03:41:00;;;;;;;1.77;0.95;;;;;;;23.39;51.98;98512.69;2086028;28;20436;-45
2022/09/20 03:42:12;;;;;;;1.35;1.02;;;;;;;23.41;52.25;98521.41;2080866;28;20122;-46
2022/09/20 03:43:29;;;;;;;1.40;1.05;;;;;;;23.40;51.99;98512.47;2076015;28;20156;-46
2022/09/20 03:45:04;;;;;;;1.83;0.93;;;;;;;23.39;51.96;98524.34;2072062;28;20147;-46
2022/09/20 03:46:16;;;;;;;1.60;0.90;;;;;;;23.38;52.19;98520.00;2072318;28;20055;-45
2022/09/20 03:47:37;;;;;;;1.40;1.08;;;;;;;23.41;51.84;98521.41;2085595;28;20101;-45
2022/09/20 03:48:58;;;;;;;1.00;0.57;;;;;;;23.38;52.19;98517.28;2085296;28;20144;-47
2022/09/20 03:50:30;;;;;;;0.77;0.73;;;;;;;23.37;52.01;98515.66;2089166;28;20052;-44
2022/09/20 03:51:46;;;;;;;1.90;0.88;;;;;;;23.38;51.94;98511.06;2091409;28;20769;-46
2022/09/20 03:53:05;;;;;;;3.85;1.23;;;;;;;23.39;52.07;98513.50;2091162;28;20060;-45
2022/09/20 03:54:34;;;;;;;2.17;1.10;;;;;;;23.39;51.91;98513.50;2090212;28;20059;-45
2022/09/20 03:55:56;;;;;;;1.63;1.13;;;;;;;23.37;52.04;98512.94;2090376;28;20092;-46
2022/09/20 03:57:24;;;;;;;1.60;0.80;;;;;;;23.38;51.87;98522.69;2092314;28;20130;-44
2022/09/20 03:58:54;;;;;;;1.17;0.73;;;;;;;23.34;52.14;98518.81;2095241;28;20153;-46
2022/09/20 04:00:21;;;;;;;1.15;0.80;;;;;;;23.35;52.02;98515.06;2090412;28;20214;-47
2022/09/20 04:01:44;;;;;;;1.13;0.90;;;;;;;23.36;52.04;98514.00;2089274;28;20040;-46
2022/09/20 04:03:12;;;;;;;1.10;0.60;;;;;;;23.37;52.06;98515.66;2083905;28;20119;-45
2022/09/20 04:04:25;;;;;;;1.35;0.73;;;;;;;23.38;52.11;98521.88;2073524;28;20052;-47
2022/09/20 04:05:32;;;;;;;1.35;0.98;;;;;;;23.37;52.06;98512.94;2083801;28;20167;-44
2022/09/20 04:06:54;;;;;;;1.45;1.10;;;;;;;23.36;52.00;98519.41;2087269;28;20053;-47
2022/09/20 04:08:09;;;;;;;1.23;0.85;;;;;;;23.36;52.07;98511.28;2090954;28;20098;-45
2022/09/20 04:09:43;;;;;;;0.98;0.82;;;;;;;23.34;52.12;98515.28;2091442;28;20535;-44
2022/09/20 04:10:58;;;;;;;2.75;0.95;;;;;;;23.35;52.25;98514.25;2091052;28;20040;-44
2022/09/20 04:12:06;;;;;;;3.30;1.40;;;;;;;23.37;51.95;98512.94;2092018;28;20056;-45
2022/09/20 04:13:21;;;;;;;1.35;0.90;;;;;;;23.38;51.96;98516.47;2091870;28;20072;-46
2022/09/20 04:14:31;;;;;;;1.55;0.93;;;;;;;23.38;51.96;98522.69;2093497;28;20040;-44
2022/09/20 04:15:43;;;;;;;1.65;1.25;;;;;;;23.38;51.92;98528.13;2089897;28;20797;-45
2022/09/20 04:16:53;;;;;;;2.40;0.90;;;;;;;23.39;52.14;98524.34;2085185;28;20041;-45
2022/09/20 04:18:00;;;;;;;2.15;1.10;;;;;;;23.41;52.11;98526.81;2093492;28;20525;-45
2022/09/20 04:19:13;;;;;;;1.88;1.38;;;;;;;23.38;52.02;98522.69;2092036;28;20048;-47
2022/09/20 04:20:20;;;;;;;2.42;0.80;;;;;;;23.39;52.10;98523.53;2092933;28;20048;-47
2022/09/20 04:21:27;;;;;;;1.67;1.00;;;;;;;23.38;52.10;98527.31;2091952;28;20461;-45
2022/09/20 04:22:29;;;;;;;3.03;0.80;;;;;;;23.37;51.99;98526.47;2092112;28;20051;-44
2022/09/20 04:23:39;;;;;;;2.03;1.02;;;;;;;23.39;51.89;98523.53;2080324;28;20048;-46
2022/09/20 04:24:53;;;;;;;0.98;0.88;;;;;;;23.38;51.85;98525.41;2077811;28;20122;-46
2022/09/20 04:25:54;;;;;;;2.22;0.88;;;;;;;23.38;52.02;98530.81;2084688;28;20048;-45
2022/09/20 04:27:00;;;;;;;1.10;0.73;;;;;;;23.39;52.05;98531.63;2085506;28;20044;-44
2022/09/20 04:28:08;;;;;;;2.03;0.98;;;;;;;23.40;51.94;98531.41;2084697;28;20113;-45
2022/09/20 04:29:32;;;;;;;1.33;0.80;;;;;;;23.35;52.03;98527.78;2084109;28;20183;-45
2022/09/20 04:30:42;;;;;;;0.98;0.73;;;;;;;23.37;52.02;98526.47;2084745;28;20775;-46
2022/09/20 04:31:50;;;;;;;2.05;0.77;;;;;;;23.38;51.96;98527.31;2086058;28;20138;-44
2022/09/20 04:33:00;;;;;;;1.20;0.70;;;;;;;23.38;51.82;98528.13;2079929;28;20044;-44
2022/09/20 04:34:04;;;;;;;1.58;0.90;;;;;;;23.38;51.75;98522.69;2081884;28;20051;-50
2022/09/20 04:36:55;;;;;;;1.42;1.20;;;;;;;23.34;52.09;98535.03;2085819;28;20650;-45
2022/09/20 04:37:56;;;;;;;1.02;0.90;;;;;;;23.34;52.04;98526.94;2074976;28;20090;-44
2022/09/20 04:39:11;;;;;;;1.48;0.63;;;;;;;23.35;52.08;98528.59;2075757;28;20060;-44
2022/09/20 04:40:22;;;;;;;1.35;0.80;;;;;;;23.36;51.95;98527.53;2077407;28;20122;-47
2022/09/20 04:41:50;;;;;;;2.30;0.98;;;;;;;23.33;52.05;98535.31;2074275;28;20098;-47
2022/09/20 04:43:46;;;;;;;1.30;0.90;;;;;;;23.30;52.06;98528.47;2085522;28;20102;-44
2022/09/20 04:45:15;;;;;;;1.05;0.75;;;;;;;23.27;52.24;98530.84;2051908;28;20045;-46
2022/09/20 04:47:00;;;;;;;0.75;0.70;;;;;;;23.26;52.29;98535.41;2051349;28;20120;-46
2022/09/20 04:48:31;;;;;;;1.85;1.08;;;;;;;23.28;52.16;98533.28;2029739;28;20047;-47
2022/09/20 04:50:09;;;;;;;3.17;0.88;;;;;;;23.27;52.10;98537.06;2028124;28;20046;-46
2022/09/20 04:51:53;;;;;;;1.40;0.68;;;;;;;23.26;52.18;98540.81;2075062;28;20056;-47
2022/09/20 04:53:33;;;;;;;1.55;0.80;;;;;;;23.24;52.26;98532.13;2090388;28;20058;-47
2022/09/20 04:55:11;;;;;;;1.35;0.88;;;;;;;23.25;52.33;98531.06;2087056;28;20097;-47
2022/09/20 04:56:19;;;;;;;2.00;0.93;;;;;;;23.27;52.12;98530.84;2090081;28;20052;-46
2022/09/20 04:57:52;;;;;;;0.82;0.70;;;;;;;23.28;52.29;98532.47;2086020;28;20454;-45
2022/09/20 04:59:06;;;;;;;1.80;0.60;;;;;;;23.27;52.07;98531.66;2088890;28;20051;-46
2022/09/20 05:00:10;;;;;;;1.75;0.88;;;;;;;23.29;52.21;98534.09;2088040;28;20052;-43
2022/09/20 05:02:02;;;;;;;1.17;0.85;;;;;;;23.29;52.12;98534.97;2089261;28;20043;-46
2022/09/20 05:03:45;;;;;;;4.50;1.42;;;;;;;23.24;52.21;98542.97;2070043;28;20577;-45
2022/09/20 05:05:08;;;;;;;1.27;0.75;;;;;;;23.24;52.26;98545.66;2057010;28;20041;-43
2022/09/20 05:06:44;;;;;;;1.98;1.00;;;;;;;23.25;52.10;98543.78;2081751;28;20125;-44
2022/09/20 05:08:27;;;;;;;0.95;0.70;;;;;;;23.26;52.27;98540.00;2086376;28;20056;-45
2022/09/20 05:09:57;;;;;;;2.10;0.95;;;;;;;23.24;52.33;98547.56;2089376;28;20060;-44
2022/09/20 05:11:30;;;;;;;5.13;1.10;;;;;;;23.24;52.19;98555.66;2083976;28;20397;-46
2022/09/20 05:12:52;;;;;;;2.03;0.90;;;;;;;23.26;52.08;98548.94;2080025;28;20075;-45
2022/09/20 05:14:11;;;;;;;2.25;0.80;;;;;;;23.26;52.17;98559.75;2077623;28;20126;-44
2022/09/20 05:15:38;;;;;;;1.25;0.98;;;;;;;23.25;52.11;98551.91;2086480;28;20048;-45
2022/09/20 05:16:58;;;;;;;1.70;0.82;;;;;;;23.25;52.16;98555.41;2073829;28;20055;-47
2022/09/20 05:18:26;;;;;;;0.95;0.52;;;;;;;23.25;52.06;98558.13;2082262;28;20125;-46
2022/09/20 05:19:39;;;;;;;1.23;0.88;;;;;;;23.27;52.13;98560.59;2082090;28;20048;-44
2022/09/20 05:20:52;;;;;;;1.20;0.90;;;;;;;23.27;52.06;98561.44;2079470;28;20044;-44
2022/09/20 05:22:18;;;;;;;1.08;0.50;;;;;;;23.24;52.17;98567.31;2083432;28;20104;-44
2022/09/20 05:23:34;;;;;;;1.30;0.77;;;;;;;23.26;52.27;98564.34;2084483;28;20060;-46
2022/09/20 05:25:08;;;;;;;2.63;0.70;;;;;;;23.26;52.31;98567.88;2082756;28;20052;-46
2022/09/20 05:26:14;;;;;;;1.55;0.85;;;;;;;23.26;52.29;98565.16;2082573;28;20056;-45
2022/09/20 05:27:33;;;;;;;2.13;0.88;;;;;;;23.26;52.20;98570.59;2083229;28;20058;-44
2022/09/20 05:28:44;;;;;;;2.60;0.80;;;;;;;23.27;51.75;98566.03;2082150;28;20460;-45
2022/09/20 05:29:50;;;;;;;2.22;0.70;;;;;;;23.28;52.23;98565.75;2050680;28;20067;-45
2022/09/20 05:30:59;;;;;;;4.35;1.00;;;;;;;23.29;52.06;98570.13;2069563;28;20142;-44
2022/09/20 05:32:09;;;;;;;3.92;1.60;;;;;;;23.30;52.01;98570.97;2084331;28;20127;-45
2022/09/20 05:33:22;;;;;;;6.75;0.93;;;;;;;23.28;52.16;98573.88;2078140;28;20055;-45
2022/09/20 05:34:30;;;;;;;2.22;0.90;;;;;;;23.30;51.90;98576.38;2083313;28;20148;-46
2022/09/20 05:35:42;;;;;;;3.95;0.90;;;;;;;23.29;52.10;98578.25;2076761;28;20140;-45
2022/09/20 05:36:54;;;;;;;5.53;1.13;;;;;;;23.28;51.66;98576.59;2072499;28;20175;-45
2022/09/20 05:38:04;;;;;;;1.50;1.40;;;;;;;23.28;51.78;98579.28;2085573;28;20044;-46
2022/09/20 05:39:31;;;;;;;2.78;0.93;;;;;;;23.25;51.32;98578.94;2081026;28;20069;-44
2022/09/20 05:40:49;;;;;;;2.22;1.05;;;;;;;23.23;50.58;98579.19;2082932;28;20529;-44
2022/09/20 05:41:55;;;;;;;1.45;0.75;;;;;;;23.24;50.53;98580.03;2084230;28;20470;-48
2022/09/20 05:43:10;;;;;;;4.60;1.20;;;;;;;23.26;50.21;98583.28;2082379;28;20064;-46
2022/09/20 05:44:22;;;;;;;2.42;1.00;;;;;;;23.25;49.77;98581.66;2076903;28;20056;-44
2022/09/20 05:45:46;;;;;;;2.42;1.00;;;;;;;23.23;49.76;98583.75;2074276;28;20056;-44
2022/09/20 05:46:57;;;;;;;3.15;1.23;;;;;;;23.25;49.07;98593.31;2074001;28;20056;-45
2022/09/20 05:48:04;;;;;;;1.23;0.75;;;;;;;23.25;48.89;98582.47;2090819;28;20125;-47
2022/09/20 05:49:14;;;;;;;2.08;1.35;;;;;;;23.25;48.80;98582.47;2068062;28;20055;-44